createdAt,value
2022-10-09T00:00:48.148Z,5.00
2022-10-09T00:03:20.634Z,4.96
2022-10-09T00:05:50.251Z,4.93
2022-10-09T00:08:19.837Z,4.87
2022-10-09T00:10:49.810Z,4.84
2022-10-09T00:13:19.490Z,4.80
2022-10-09T00:15:50.023Z,4.78
2022-10-09T00:18:22.447Z,4.74
2022-10-09T00:20:52.057Z,4.72
2022-10-09T00:23:21.608Z,4.71
2022-10-09T00:25:55.571Z,4.70
2022-10-09T00:28:26.304Z,4.68
2022-10-09T00:30:56.496Z,4.70
2022-10-09T00:33:28.661Z,4.70
2022-10-09T00:35:58.255Z,4.71
2022-10-09T00:38:27.949Z,4.71
2022-10-09T00:40:57.610Z,4.70
2022-10-09T00:43:43.189Z,4.70
2022-10-09T00:46:36.348Z,4.68
2022-10-09T00:49:17.245Z,4.67
2022-10-09T00:51:48.769Z,4.66
2022-10-09T00:54:21.367Z,4.65
2022-10-09T00:56:51.844Z,4.66
2022-10-09T00:59:22.070Z,4.66
2022-10-09T01:01:51.748Z,4.64
2022-10-09T01:04:24.024Z,4.65
2022-10-09T01:07:08.666Z,4.68
2022-10-09T01:09:42.995Z,4.68
2022-10-09T01:12:17.254Z,4.67
2022-10-09T01:14:47.716Z,4.64
2022-10-09T01:17:20.830Z,4.62
2022-10-09T01:20:25.105Z,4.60
2022-10-09T01:23:05.270Z,4.56
2022-10-09T01:25:38.208Z,4.53
2022-10-09T01:28:10.758Z,4.50
2022-10-09T01:30:40.690Z,4.46
2022-10-09T01:33:10.817Z,4.42
2022-10-09T01:35:40.852Z,4.40
2022-10-09T01:38:10.629Z,4.37
2022-10-09T01:40:40.392Z,4.36
2022-10-09T01:43:12.571Z,4.42
2022-10-09T01:45:43.856Z,4.49
2022-10-09T01:48:17.811Z,4.54
2022-10-09T01:50:49.461Z,4.56
2022-10-09T01:53:21.151Z,4.58
2022-10-09T01:55:54.342Z,4.63
2022-10-09T01:58:31.200Z,4.70
2022-10-09T02:01:08.223Z,4.70
2022-10-09T02:03:39.289Z,4.68
2022-10-09T02:06:10.711Z,4.68
2022-10-09T02:08:41.585Z,4.66
2022-10-09T02:11:11.524Z,4.61
2022-10-09T02:13:44.558Z,4.59
2022-10-09T02:16:19.896Z,4.58
2022-10-09T02:18:51.748Z,4.55
2022-10-09T02:21:25.291Z,4.49
2022-10-09T02:23:56.077Z,4.43
2022-10-09T02:26:26.119Z,4.39
2022-10-09T02:28:58.433Z,4.34
2022-10-09T02:31:30.013Z,4.28
2022-10-09T02:33:59.953Z,4.23
2022-10-09T02:36:30.485Z,4.17
2022-10-09T02:39:00.706Z,4.12
2022-10-09T02:41:30.569Z,4.08
2022-10-09T02:44:02.767Z,4.06
2022-10-09T02:46:32.711Z,4.03
2022-10-09T02:49:02.427Z,4.04
2022-10-09T02:51:32.016Z,4.07
2022-10-09T02:54:02.246Z,4.11
2022-10-09T02:56:36.661Z,4.14
2022-10-09T02:59:11.225Z,4.15
2022-10-09T03:01:40.973Z,4.17
2022-10-09T03:04:10.594Z,4.16
2022-10-09T03:06:40.236Z,4.12
2022-10-09T03:09:09.890Z,4.09
2022-10-09T03:11:39.581Z,4.06
2022-10-09T03:14:11.974Z,4.02
2022-10-09T03:16:41.652Z,4.00
2022-10-09T03:19:11.187Z,3.99
2022-10-09T03:21:40.771Z,3.98
2022-10-09T03:24:10.421Z,3.95
2022-10-09T03:26:40.004Z,3.94
2022-10-09T03:29:12.232Z,3.91
2022-10-09T03:31:57.172Z,3.88
2022-10-09T03:34:27.231Z,3.85
2022-10-09T03:36:56.827Z,3.83
2022-10-09T03:39:26.529Z,3.82
2022-10-09T03:41:56.139Z,3.82
2022-10-09T03:44:28.431Z,3.80
2022-10-09T03:46:58.043Z,3.80
2022-10-09T03:49:27.697Z,3.80
2022-10-09T03:51:57.254Z,3.79
2022-10-09T03:54:26.875Z,3.80
2022-10-09T03:56:56.423Z,3.77
2022-10-09T03:59:28.681Z,3.79
2022-10-09T04:01:58.299Z,3.79
2022-10-09T04:04:27.942Z,3.80
2022-10-09T04:06:57.653Z,3.79
2022-10-09T04:09:27.355Z,3.77
2022-10-09T04:11:57.215Z,3.77
2022-10-09T04:14:29.364Z,3.75
2022-10-09T04:16:58.922Z,3.73
2022-10-09T04:19:28.524Z,3.76
2022-10-09T04:21:58.111Z,3.75
2022-10-09T04:24:27.755Z,3.74
2022-10-09T04:26:57.321Z,3.76
2022-10-09T04:29:29.439Z,3.77
2022-10-09T04:31:59.250Z,3.81
2022-10-09T04:34:28.981Z,3.84
2022-10-09T04:36:58.569Z,3.87
2022-10-09T04:39:28.156Z,3.90
2022-10-09T04:41:57.725Z,3.93
2022-10-09T04:44:29.929Z,3.94
2022-10-09T04:46:59.555Z,3.92
2022-10-09T04:49:29.131Z,3.92
2022-10-09T04:51:58.720Z,3.93
2022-10-09T04:54:28.485Z,3.93
2022-10-09T04:56:58.047Z,3.93
2022-10-09T04:59:32.533Z,3.94
2022-10-09T05:02:02.571Z,4.01
2022-10-09T05:04:32.244Z,4.05
2022-10-09T05:07:02.192Z,4.10
2022-10-09T05:09:31.827Z,4.13
2022-10-09T05:12:01.811Z,4.14
2022-10-09T05:14:33.948Z,4.19
2022-10-09T05:17:23.184Z,4.22
2022-10-09T05:19:53.109Z,4.28
2022-10-09T05:22:22.833Z,4.31
2022-10-09T05:24:52.432Z,4.34
2022-10-09T05:27:22.047Z,4.34
2022-10-09T05:29:54.218Z,4.32
2022-10-09T05:32:23.762Z,4.30
2022-10-09T05:34:53.321Z,4.27
2022-10-09T05:37:23.107Z,4.21
2022-10-09T05:39:52.633Z,4.17
2022-10-09T05:42:22.194Z,4.15
2022-10-09T05:44:54.354Z,4.12
2022-10-09T05:47:24.004Z,4.07
2022-10-09T05:49:53.599Z,4.03
2022-10-09T05:52:23.418Z,4.00
2022-10-09T05:54:53.076Z,3.99
2022-10-09T05:57:22.671Z,3.97
2022-10-09T05:59:54.815Z,3.97
2022-10-09T06:02:24.863Z,3.93
2022-10-09T06:04:54.507Z,3.93
2022-10-09T06:07:24.084Z,3.92
2022-10-09T06:09:53.689Z,3.93
2022-10-09T06:12:23.457Z,3.97
2022-10-09T06:14:55.895Z,4.02
2022-10-09T06:17:25.529Z,4.05
2022-10-09T06:19:55.113Z,4.10
2022-10-09T06:22:24.718Z,4.13
2022-10-09T06:24:54.313Z,4.18
2022-10-09T06:27:23.938Z,4.24
2022-10-09T06:29:56.181Z,4.34
2022-10-09T06:32:25.879Z,4.51
2022-10-09T06:34:57.392Z,4.74
2022-10-09T06:37:27.043Z,5.09
2022-10-09T06:39:56.611Z,5.65
2022-10-09T06:42:26.490Z,6.34
2022-10-09T06:45:02.914Z,7.10
2022-10-09T06:47:32.502Z,7.89
2022-10-09T06:50:02.158Z,8.74
2022-10-09T06:52:31.775Z,9.55
2022-10-09T06:55:01.399Z,10.33
2022-10-09T06:57:31.001Z,11.10
2022-10-09T07:00:03.301Z,11.85
2022-10-09T07:02:34.845Z,12.61
2022-10-09T07:05:04.485Z,13.37
2022-10-09T07:07:34.111Z,14.11
2022-10-09T07:10:03.677Z,14.82
2022-10-09T07:12:33.270Z,15.44
2022-10-09T07:15:06.683Z,16.08
2022-10-09T07:17:36.514Z,16.65
2022-10-09T07:20:06.529Z,17.25
2022-10-09T07:22:36.126Z,17.77
2022-10-09T07:25:05.757Z,18.32
2022-10-09T07:27:36.126Z,18.86
2022-10-09T07:30:09.913Z,19.26
2022-10-09T07:32:39.526Z,19.66
2022-10-09T07:35:09.987Z,20.15
2022-10-09T07:37:39.605Z,20.66
2022-10-09T07:40:09.922Z,21.12
2022-10-09T07:42:39.545Z,21.54
2022-10-09T07:45:12.785Z,21.97
2022-10-09T07:47:42.419Z,22.38
2022-10-09T07:50:12.329Z,22.74
2022-10-09T07:52:44.243Z,22.95
2022-10-09T07:55:13.839Z,22.98
2022-10-09T07:57:43.400Z,23.08
2022-10-09T08:00:17.235Z,23.16
2022-10-09T08:02:47.572Z,23.24
2022-10-09T08:05:17.484Z,23.60
2022-10-09T08:07:47.108Z,23.85
2022-10-09T08:10:16.677Z,23.96
2022-10-09T08:12:46.603Z,23.95
2022-10-09T08:15:19.215Z,23.96
2022-10-09T08:17:48.845Z,23.98
2022-10-09T08:20:18.622Z,23.90
2022-10-09T08:22:48.473Z,23.86
2022-10-09T08:25:18.953Z,24.02
2022-10-09T08:27:48.801Z,24.09
2022-10-09T08:30:21.112Z,24.41
2022-10-09T08:32:51.354Z,24.88
2022-10-09T08:35:21.066Z,25.20
2022-10-09T08:37:50.928Z,25.28
2022-10-09T08:40:22.022Z,25.27
2022-10-09T08:42:56.298Z,25.39
2022-10-09T08:45:28.469Z,25.40
2022-10-09T08:48:01.125Z,25.29
2022-10-09T08:50:34.040Z,25.09
2022-10-09T08:53:07.673Z,24.89
2022-10-09T08:55:41.031Z,24.87
2022-10-09T08:58:12.706Z,24.95
2022-10-09T09:00:48.532Z,25.02
2022-10-09T09:03:32.864Z,25.10
2022-10-09T09:06:09.462Z,25.15
2022-10-09T09:08:46.586Z,25.41
2022-10-09T09:11:26.311Z,25.97
2022-10-09T09:14:06.236Z,26.25
2022-10-09T09:16:44.647Z,26.33
2022-10-09T09:19:27.957Z,26.51
2022-10-09T09:22:01.244Z,26.52
2022-10-09T09:24:39.107Z,26.29
2022-10-09T09:27:15.622Z,26.09
2022-10-09T09:29:50.300Z,25.99
2022-10-09T09:32:27.517Z,26.12
2022-10-09T09:35:02.830Z,26.13
2022-10-09T09:37:33.038Z,26.01
2022-10-09T09:42:57.022Z,25.82
2022-10-09T09:45:28.983Z,25.50
2022-10-09T09:48:07.106Z,25.20
2022-10-09T09:50:56.355Z,24.74
2022-10-09T09:53:36.227Z,24.25
2022-10-09T09:56:07.312Z,23.82
2022-10-09T09:58:39.251Z,23.21
2022-10-09T10:01:10.004Z,22.46
2022-10-09T10:03:50.738Z,21.60
2022-10-09T10:06:27.945Z,20.70
2022-10-09T10:09:02.141Z,19.91
2022-10-09T10:11:34.037Z,19.27
2022-10-09T10:14:09.542Z,18.70
2022-10-09T10:16:42.166Z,18.23
2022-10-09T10:19:24.159Z,17.73
2022-10-09T10:21:59.267Z,17.21
2022-10-09T10:24:34.362Z,16.86
2022-10-09T10:27:12.509Z,16.62
2022-10-09T10:29:46.622Z,16.42
2022-10-09T10:32:20.989Z,16.27
2022-10-09T10:34:59.328Z,16.14
2022-10-09T10:37:37.298Z,16.10
2022-10-09T10:40:14.049Z,16.03
2022-10-09T10:42:48.859Z,15.93
2022-10-09T10:45:20.296Z,15.83
2022-10-09T10:47:54.319Z,15.72
2022-10-09T10:50:30.237Z,15.59
2022-10-09T10:53:09.931Z,15.49
2022-10-09T10:55:50.009Z,15.45
2022-10-09T10:58:33.439Z,15.42
2022-10-09T11:01:25.220Z,15.45
2022-10-09T11:04:24.205Z,15.48
2022-10-09T11:07:08.895Z,15.49
2022-10-09T11:09:43.714Z,15.48
2022-10-09T11:12:43.356Z,15.46
2022-10-09T11:15:17.051Z,15.48
2022-10-09T11:17:50.726Z,15.50
2022-10-09T11:20:57.196Z,15.54
2022-10-09T11:23:43.765Z,15.54
2022-10-09T11:26:24.052Z,15.55
2022-10-09T11:29:01.043Z,15.54
2022-10-09T11:31:38.644Z,15.52
2022-10-09T11:34:19.191Z,15.51
2022-10-09T11:36:49.544Z,15.49
2022-10-09T11:39:26.412Z,15.46
2022-10-09T11:41:57.118Z,15.49
2022-10-09T11:44:41.033Z,15.53
2022-10-09T11:47:20.715Z,15.58
2022-10-09T11:50:03.591Z,15.63
2022-10-09T11:52:43.190Z,15.70
2022-10-09T11:55:26.022Z,15.73
2022-10-09T11:57:55.805Z,15.72
2022-10-09T12:00:38.658Z,15.71
2022-10-09T12:03:11.409Z,15.69
2022-10-09T12:05:45.953Z,15.69
2022-10-09T12:08:22.876Z,15.72
2022-10-09T12:11:01.405Z,15.78
2022-10-09T12:13:34.657Z,15.80
2022-10-09T12:16:04.818Z,15.80
2022-10-09T12:18:39.800Z,15.80
2022-10-09T12:21:13.679Z,15.80
2022-10-09T12:23:43.694Z,15.83
2022-10-09T12:26:16.507Z,15.85
2022-10-09T12:28:51.378Z,15.90
2022-10-09T12:31:26.052Z,15.91
2022-10-09T12:33:59.162Z,15.87
2022-10-09T12:36:30.399Z,15.85
2022-10-09T12:39:00.480Z,15.88
2022-10-09T12:41:35.288Z,15.92
2022-10-09T12:44:05.494Z,15.94
2022-10-09T12:46:38.490Z,15.95
2022-10-09T12:49:17.173Z,15.96
2022-10-09T12:51:56.455Z,15.98
2022-10-09T12:54:27.139Z,16.01
2022-10-09T12:57:02.239Z,16.02
2022-10-09T12:59:35.969Z,16.01
2022-10-09T13:02:06.220Z,16.00
2022-10-09T13:04:37.233Z,15.96
2022-10-09T13:07:10.818Z,15.94
2022-10-09T13:09:44.397Z,15.92
2022-10-09T13:12:20.765Z,15.93
2022-10-09T13:14:56.912Z,15.97
2022-10-09T13:20:03.462Z,16.04
2022-10-09T13:22:36.144Z,16.07
2022-10-09T13:25:09.636Z,16.12
2022-10-09T13:27:45.678Z,16.14
2022-10-09T13:30:16.656Z,16.15
2022-10-09T13:32:46.277Z,16.16
2022-10-09T13:35:15.931Z,16.15
2022-10-09T13:37:45.530Z,16.13
2022-10-09T13:40:19.709Z,16.14
2022-10-09T13:42:56.649Z,16.14
2022-10-09T13:45:27.327Z,16.15
2022-10-09T13:47:57.384Z,16.16
2022-10-09T13:50:28.025Z,16.15
2022-10-09T13:53:00.594Z,16.18
2022-10-09T13:55:30.648Z,16.20
2022-10-09T13:58:03.513Z,16.19
2022-10-09T14:00:33.704Z,16.18
2022-10-09T14:03:04.208Z,16.15
2022-10-09T14:05:33.944Z,16.12
2022-10-09T14:08:04.014Z,16.08
2022-10-09T14:10:34.401Z,16.07
2022-10-09T14:13:12.685Z,16.05
2022-10-09T14:15:43.522Z,16.04
2022-10-09T14:18:14.471Z,16.04
2022-10-09T14:20:44.932Z,16.06
2022-10-09T14:23:19.698Z,16.06
2022-10-09T14:25:55.795Z,16.06
2022-10-09T14:28:29.574Z,16.06
2022-10-09T14:31:00.184Z,16.08
2022-10-09T14:33:29.980Z,16.09
2022-10-09T14:36:00.453Z,16.08
2022-10-09T14:38:30.353Z,16.07
2022-10-09T14:41:00.831Z,16.03
2022-10-09T14:43:34.276Z,16.00
2022-10-09T14:46:09.241Z,15.97
2022-10-09T14:48:42.950Z,15.93
2022-10-09T14:51:15.297Z,15.92
2022-10-09T14:53:45.837Z,15.89
2022-10-09T14:56:21.319Z,15.85
2022-10-09T14:58:54.350Z,15.82
2022-10-09T15:01:25.424Z,15.80
2022-10-09T15:03:56.369Z,15.78
2022-10-09T15:06:38.715Z,15.73
2022-10-09T15:09:08.834Z,15.70
2022-10-09T15:11:39.252Z,15.66
2022-10-09T15:14:13.553Z,15.60
2022-10-09T15:16:47.549Z,15.58
2022-10-09T15:19:18.329Z,15.53
2022-10-09T15:21:48.203Z,15.50
2022-10-09T15:24:18.662Z,15.43
2022-10-09T15:26:48.559Z,15.38
2022-10-09T15:29:20.960Z,15.35
2022-10-09T15:31:52.847Z,15.33
2022-10-09T15:34:23.668Z,15.29
2022-10-09T15:36:53.835Z,15.23
2022-10-09T15:39:24.107Z,15.20
2022-10-09T15:41:54.409Z,15.15
2022-10-09T15:44:26.992Z,15.12
2022-10-09T15:46:57.599Z,15.05
2022-10-09T15:49:27.560Z,15.01
2022-10-09T15:51:57.833Z,14.95
2022-10-09T15:54:30.916Z,14.89
2022-10-09T15:57:01.456Z,14.81
2022-10-09T15:59:37.409Z,14.74
2022-10-09T16:02:07.629Z,14.64
2022-10-09T16:04:37.563Z,14.55
2022-10-09T16:07:07.277Z,14.48
2022-10-09T16:09:37.033Z,14.43
2022-10-09T16:12:07.190Z,14.36
2022-10-09T16:14:42.743Z,14.29
2022-10-09T16:17:12.368Z,14.23
2022-10-09T16:19:42.007Z,14.18
2022-10-09T16:22:19.336Z,14.14
2022-10-09T16:24:50.945Z,14.09
2022-10-09T16:27:20.623Z,14.00
2022-10-09T16:29:55.820Z,13.91
2022-10-09T16:32:27.275Z,13.82
2022-10-09T16:34:59.057Z,13.74
2022-10-09T16:37:31.886Z,13.62
2022-10-09T16:40:06.957Z,13.50
2022-10-09T16:42:36.733Z,13.40
2022-10-09T16:45:11.225Z,13.29
2022-10-09T16:47:44.223Z,13.17
2022-10-09T16:50:19.950Z,13.04
2022-10-09T16:52:53.779Z,12.93
2022-10-09T16:55:24.527Z,12.80
2022-10-09T16:57:54.855Z,12.66
2022-10-09T17:00:34.074Z,12.53
2022-10-09T17:03:06.196Z,12.41
2022-10-09T17:05:42.363Z,12.27
2022-10-09T17:08:12.130Z,12.15
2022-10-09T17:10:45.150Z,12.04
2022-10-09T17:13:17.550Z,11.93
2022-10-09T17:15:50.412Z,11.83
2022-10-09T17:18:21.115Z,11.75
2022-10-09T17:20:50.707Z,11.66
2022-10-09T17:23:20.846Z,11.58
2022-10-09T17:25:50.413Z,11.51
2022-10-09T17:28:20.136Z,11.41
2022-10-09T17:30:52.444Z,11.32
2022-10-09T17:33:22.177Z,11.27
2022-10-09T17:35:54.391Z,11.21
2022-10-09T17:38:24.289Z,11.13
2022-10-09T17:40:54.211Z,11.07
2022-10-09T17:43:23.882Z,10.97
2022-10-09T17:45:56.293Z,10.96
2022-10-09T17:48:26.005Z,10.91
2022-10-09T17:50:56.810Z,10.87
2022-10-09T17:53:27.341Z,10.79
2022-10-09T17:55:58.471Z,10.73
2022-10-09T17:58:28.073Z,10.68
2022-10-09T18:01:00.943Z,10.61
2022-10-09T18:03:30.820Z,10.53
2022-10-09T18:06:02.461Z,10.45
2022-10-09T18:08:32.950Z,10.40
2022-10-09T18:11:05.624Z,10.35
2022-10-09T18:13:35.316Z,10.28
2022-10-09T18:16:14.892Z,10.22
2022-10-09T18:18:44.849Z,10.18
2022-10-09T18:21:16.963Z,10.12
2022-10-09T18:23:46.987Z,10.04
2022-10-09T18:26:20.953Z,9.98
2022-10-09T18:28:50.689Z,9.94
2022-10-09T18:31:23.981Z,9.94
2022-10-09T18:33:55.289Z,9.92
2022-10-09T18:36:31.059Z,9.88
2022-10-09T18:39:02.554Z,9.82
2022-10-09T18:41:32.263Z,9.77
2022-10-09T18:44:03.397Z,9.73
2022-10-09T18:46:39.051Z,9.74
2022-10-09T18:49:09.922Z,9.78
2022-10-09T18:51:40.654Z,9.79
2022-10-09T18:54:17.095Z,9.87
2022-10-09T18:56:47.873Z,9.90
2022-10-09T18:59:21.504Z,9.90
2022-10-09T19:01:56.750Z,9.94
2022-10-09T19:04:26.949Z,9.97
2022-10-09T19:06:56.834Z,9.99
2022-10-09T19:09:26.586Z,10.00
2022-10-09T19:11:58.536Z,10.02
2022-10-09T19:14:28.638Z,10.01
2022-10-09T19:17:00.970Z,10.04
2022-10-09T19:19:31.594Z,10.02
2022-10-09T19:22:01.220Z,10.02
2022-10-09T19:24:34.242Z,10.01
2022-10-09T19:27:05.084Z,9.98
2022-10-09T19:29:36.062Z,9.96
2022-10-09T19:32:08.317Z,9.96
2022-10-09T19:34:38.018Z,9.95
2022-10-09T19:37:07.927Z,9.96
2022-10-09T19:39:37.844Z,9.95
2022-10-09T19:42:07.471Z,9.95
2022-10-09T19:44:37.169Z,9.96
2022-10-09T19:47:09.439Z,9.98
2022-10-09T19:49:39.298Z,10.01
2022-10-09T19:52:09.221Z,9.99
2022-10-09T19:54:40.131Z,9.99
2022-10-09T19:57:09.785Z,9.99
2022-10-09T19:59:42.095Z,10.02
2022-10-09T20:02:16.842Z,10.01
2022-10-09T20:04:46.602Z,10.03
2022-10-09T20:07:16.219Z,10.04
2022-10-09T20:09:46.064Z,10.05
2022-10-09T20:12:15.882Z,10.08
2022-10-09T20:14:45.677Z,10.08
2022-10-09T20:17:20.822Z,10.06
2022-10-09T20:19:50.675Z,10.04
2022-10-09T20:22:20.841Z,10.04
2022-10-09T20:24:50.491Z,10.04
2022-10-09T20:27:20.282Z,10.03
2022-10-09T20:29:52.024Z,10.01
2022-10-09T20:32:24.985Z,10.00
2022-10-09T20:34:54.891Z,10.02
2022-10-09T20:37:24.525Z,9.99
2022-10-09T20:39:54.383Z,10.00
2022-10-09T20:42:23.986Z,10.02
2022-10-09T20:44:53.639Z,10.02
2022-10-09T20:47:25.910Z,10.00
2022-10-09T20:49:55.532Z,9.96
2022-10-09T20:52:27.200Z,9.92
2022-10-09T20:54:56.797Z,9.91
2022-10-09T20:57:27.496Z,9.88
2022-10-09T20:59:57.642Z,9.82
2022-10-09T21:02:30.230Z,9.81
2022-10-09T21:05:00.439Z,9.77
2022-10-09T21:07:30.125Z,9.71
2022-10-09T21:09:59.662Z,9.65
2022-10-09T21:12:29.314Z,9.61
2022-10-09T21:15:01.460Z,9.57
2022-10-09T21:17:34.934Z,9.53
2022-10-09T21:20:06.312Z,9.50
2022-10-09T21:22:38.210Z,9.47
2022-10-09T21:25:10.916Z,9.46
2022-10-09T21:27:40.521Z,9.47
2022-10-09T21:30:11.525Z,9.48
2022-10-09T21:32:44.143Z,9.47
2022-10-09T21:35:13.738Z,9.44
2022-10-09T21:37:43.317Z,9.42
2022-10-09T21:40:13.240Z,9.38
2022-10-09T21:42:42.880Z,9.34
2022-10-09T21:45:13.525Z,9.31
2022-10-09T21:47:45.744Z,9.30
2022-10-09T21:50:15.320Z,9.28
2022-10-09T21:52:44.943Z,9.28
2022-10-09T21:55:14.500Z,9.27
2022-10-09T21:57:45.259Z,9.21
2022-10-09T22:00:19.735Z,9.19
2022-10-09T22:02:52.437Z,9.16
2022-10-09T22:05:22.221Z,9.13
2022-10-09T22:07:51.831Z,9.10
2022-10-09T22:10:22.061Z,9.05
2022-10-09T22:12:52.129Z,9.00
2022-10-09T22:15:22.087Z,8.97
2022-10-09T22:17:54.347Z,8.94
2022-10-09T22:20:23.976Z,8.93
2022-10-09T22:22:53.953Z,8.88
2022-10-09T22:25:23.513Z,8.88
2022-10-09T22:27:53.217Z,8.89
2022-10-09T22:30:22.825Z,8.89
2022-10-09T22:32:55.448Z,8.91
2022-10-09T22:35:25.238Z,8.89
2022-10-09T22:37:54.911Z,8.89
2022-10-09T22:40:24.774Z,8.89
2022-10-09T22:42:54.886Z,8.87
2022-10-09T22:45:24.687Z,8.87
2022-10-09T22:47:56.962Z,8.85
2022-10-09T22:50:26.530Z,8.86
2022-10-09T22:52:56.306Z,8.83
2022-10-09T22:55:25.913Z,8.83
2022-10-09T22:57:55.497Z,8.81
2022-10-09T23:00:25.367Z,8.78
2022-10-09T23:02:57.765Z,8.75
2022-10-09T23:05:27.365Z,8.71
2022-10-09T23:07:57.217Z,8.69
2022-10-09T23:10:26.884Z,8.68
2022-10-09T23:12:56.573Z,8.68
2022-10-09T23:15:26.267Z,8.66
2022-10-09T23:17:58.773Z,8.65
2022-10-09T23:20:30.507Z,8.67
2022-10-09T23:23:00.116Z,8.67
2022-10-09T23:25:29.852Z,8.68
2022-10-09T23:27:59.704Z,8.68
2022-10-09T23:30:29.549Z,8.65
2022-10-09T23:33:01.856Z,8.63
2022-10-09T23:35:31.434Z,8.68
2022-10-09T23:38:01.091Z,8.68
2022-10-09T23:40:30.993Z,8.68
2022-10-09T23:43:00.579Z,8.69
2022-10-09T23:45:30.458Z,8.71
2022-10-09T23:48:02.763Z,8.74
2022-10-09T23:50:32.607Z,8.77
2022-10-09T23:53:02.296Z,8.78
2022-10-09T23:55:31.884Z,8.82
2022-10-09T23:58:01.596Z,8.85
